Time;durP1;ratioP1;P1;durP2;ratioP2;P2;SDS_P1;SDS_P2;PMS_P1;PMS_P2;Temp;Humidity;BMP_temperature;BMP_pressure;BME280_temperature;BME280_humidity;BME280_pressure;Samples;Min_cycle;Max_cycle;Signal;HPM_P1;HPM_P2
2023/07/01 00:02:17;;;;;;;2.90;2.60;;;;;;;;;;5051673;28;20186;-76
2023/07/01 00:04:44;;;;;;;3.37;3.07;;;;;;;;;;5034262;28;20204;-76
2023/07/01 00:07:10;;;;;;;4.80;2.93;;;;;;;;;;5036471;28;20528;-78
2023/07/01 00:09:36;;;;;;;2.97;2.77;;;;;;;;;;5051447;28;20209;-76
2023/07/01 00:12:02;;;;;;;4.40;3.00;;;;;;;;;;5042046;28;20186;-77
2023/07/01 00:14:29;;;;;;;5.97;3.70;;;;;;;;;;5048433;28;20214;-76
2023/07/01 00:16:55;;;;;;;3.30;3.00;;;;;;;;;;5044729;28;20181;-76
2023/07/01 00:19:21;;;;;;;3.90;3.20;;;;;;;;;;5045752;28;20247;-76
2023/07/01 00:21:47;;;;;;;3.40;3.10;;;;;;;;;;5032414;28;20182;-76
2023/07/01 00:24:13;;;;;;;5.13;3.60;;;;;;;;;;5033956;28;20216;-76
2023/07/01 00:26:39;;;;;;;4.40;3.50;;;;;;;;;;5049879;28;20285;-75
2023/07/01 00:29:06;;;;;;;4.70;3.77;;;;;;;;;;5027137;28;20654;-76
2023/07/01 00:31:32;;;;;;;5.30;3.93;;;;;;;;;;5044278;28;20173;-75
2023/07/01 00:33:59;;;;;;;5.10;3.80;;;;;;;;;;4987350;28;20217;-76
2023/07/01 00:36:25;;;;;;;4.43;3.90;;;;;;;;;;5024220;28;20198;-76
2023/07/01 00:38:51;;;;;;;3.87;3.50;;;;;;;;;;5033897;28;20178;-76
2023/07/01 00:41:20;;;;;;;5.53;4.20;;;;;;;;;;5029215;28;20672;-77
2023/07/01 00:43:46;;;;;;;6.17;4.60;;;;;;;;;;5044625;28;20193;-77
2023/07/01 00:46:13;;;;;;;6.97;4.33;;;;;;;;;;5046919;28;20194;-76
2023/07/01 00:48:41;;;;;;;4.47;4.07;;;;;;;;;;5034506;28;20221;-77
2023/07/01 00:51:07;;;;;;;6.07;3.97;;;;;;;;;;5052154;28;20201;-77
2023/07/01 00:53:33;;;;;;;5.40;4.03;;;;;;;;;;5016136;28;20174;-77
2023/07/01 00:55:59;;;;;;;4.93;4.47;;;;;;;;;;5004741;28;1089694;-77
2023/07/01 00:58:26;;;;;;;5.90;4.60;;;;;;;;;;5034092;28;20184;-77
2023/07/01 01:00:56;;;;;;;9.60;4.93;;;;;;;;;;5051362;28;20179;-77
2023/07/01 01:03:28;;;;;;;5.43;4.80;;;;;;;;;;5032749;28;20613;-77
2023/07/01 01:06:04;;;;;;;5.20;4.70;;;;;;;;;;5025613;28;20196;-77
2023/07/01 01:08:39;;;;;;;4.93;4.20;;;;;;;;;;5016753;28;20189;-77
2023/07/01 01:11:06;;;;;;;4.43;4.00;;;;;;;;;;5052587;28;20216;-77
2023/07/01 01:13:33;;;;;;;5.10;4.60;;;;;;;;;;5033093;28;20182;-77
2023/07/01 01:15:59;;;;;;;5.03;4.50;;;;;;;;;;5021847;28;20688;-77
2023/07/01 01:18:30;;;;;;;6.70;4.40;;;;;;;;;;5052715;28;20190;-77
2023/07/01 01:20:57;;;;;;;5.13;4.20;;;;;;;;;;5017657;28;20198;-77
2023/07/01 01:23:23;;;;;;;5.07;4.27;;;;;;;;;;5034327;28;20308;-77
2023/07/01 01:26:02;;;;;;;4.10;3.73;;;;;;;;;;5043604;28;20195;-77
2023/07/01 01:28:28;;;;;;;4.37;3.97;;;;;;;;;;4995591;28;20205;-77
2023/07/01 01:30:55;;;;;;;4.27;3.93;;;;;;;;;;5031132;28;20231;-77
2023/07/01 01:33:21;;;;;;;4.80;3.93;;;;;;;;;;5050959;28;20197;-77
2023/07/01 01:35:47;;;;;;;5.30;4.30;;;;;;;;;;5032579;28;20201;-77
2023/07/01 01:38:26;;;;;;;5.67;4.80;;;;;;;;;;5031901;28;20266;-77
2023/07/01 01:40:52;;;;;;;5.03;4.30;;;;;;;;;;5051447;28;20209;-77
2023/07/01 01:43:24;;;;;;;5.40;4.90;;;;;;;;;;5050050;28;20182;-77
2023/07/01 01:45:50;;;;;;;4.73;4.30;;;;;;;;;;5033478;28;20221;-77
2023/07/01 01:48:17;;;;;;;4.63;4.23;;;;;;;;;;5030278;28;20547;-77
2023/07/01 01:50:45;;;;;;;5.83;4.23;;;;;;;;;;5037140;28;20201;-77
2023/07/01 01:53:11;;;;;;;6.23;4.60;;;;;;;;;;5040723;28;20268;-77
2023/07/01 01:55:38;;;;;;;7.80;4.40;;;;;;;;;;5025444;28;20214;-77
2023/07/01 01:58:04;;;;;;;4.30;4.00;;;;;;;;;;5033773;28;20177;-77
2023/07/01 02:00:33;;;;;;;4.60;4.00;;;;;;;;;;5017469;28;20197;-77
2023/07/01 02:03:00;;;;;;;4.50;4.10;;;;;;;;;;5013876;28;20677;-77
2023/07/01 02:05:26;;;;;;;4.40;4.00;;;;;;;;;;5021370;28;20316;-77
2023/07/01 02:07:53;;;;;;;5.63;4.60;;;;;;;;;;5051319;28;20641;-77
2023/07/01 02:10:19;;;;;;;5.03;4.07;;;;;;;;;;5051452;28;20211;-77
2023/07/01 02:12:46;;;;;;;4.57;4.17;;;;;;;;;;5004983;28;20186;-77
2023/07/01 02:15:13;;;;;;;5.43;4.20;;;;;;;;;;5049638;28;20208;-77
2023/07/01 02:17:39;;;;;;;5.43;4.20;;;;;;;;;;5046453;28;20186;-77
2023/07/01 02:20:06;;;;;;;4.73;4.10;;;;;;;;;;5035025;28;20201;-77
2023/07/01 02:22:32;;;;;;;5.67;4.03;;;;;;;;;;5047236;28;20262;-77
2023/07/01 02:24:58;;;;;;;4.70;4.10;;;;;;;;;;5039306;28;20207;-78
2023/07/01 02:27:25;;;;;;;5.07;4.57;;;;;;;;;;5033796;28;20182;-77
2023/07/01 02:29:51;;;;;;;6.77;4.70;;;;;;;;;;5050346;28;20334;-76
2023/07/01 02:32:17;;;;;;;6.50;4.50;;;;;;;;;;5032884;28;20264;-76
2023/07/01 02:34:43;;;;;;;5.60;5.10;;;;;;;;;;5050478;28;20185;-76
2023/07/01 02:37:10;;;;;;;5.07;4.57;;;;;;;;;;5031802;28;20196;-76
2023/07/01 02:39:36;;;;;;;6.70;5.50;;;;;;;;;;5048611;28;20717;-76
2023/07/01 02:42:02;;;;;;;5.53;5.03;;;;;;;;;;5031537;28;20253;-77
2023/07/01 02:44:28;;;;;;;5.10;4.60;;;;;;;;;;5050777;28;20858;-76
2023/07/01 02:46:54;;;;;;;5.47;4.60;;;;;;;;;;5032263;28;20326;-76
2023/07/01 02:49:20;;;;;;;5.70;4.60;;;;;;;;;;5049791;28;20304;-76
2023/07/01 02:51:46;;;;;;;7.43;5.13;;;;;;;;;;5050644;28;20182;-76
2023/07/01 02:54:12;;;;;;;5.70;5.10;;;;;;;;;;5050229;28;20182;-76
2023/07/01 02:56:39;;;;;;;5.67;5.00;;;;;;;;;;5041226;28;20269;-76
2023/07/01 02:59:05;;;;;;;5.33;4.83;;;;;;;;;;5050566;28;20185;-77
2023/07/01 03:01:31;;;;;;;6.03;4.40;;;;;;;;;;5032843;28;20185;-77
2023/07/01 03:03:57;;;;;;;5.30;4.70;;;;;;;;;;5033066;28;20571;-77
2023/07/01 03:06:23;;;;;;;5.20;4.33;;;;;;;;;;5050571;28;20229;-77
2023/07/01 03:08:49;;;;;;;6.33;5.33;;;;;;;;;;5016582;28;20217;-76
2023/07/01 03:11:16;;;;;;;6.27;5.50;;;;;;;;;;5036836;28;20188;-76
2023/07/01 03:13:42;;;;;;;5.67;5.07;;;;;;;;;;5025587;28;20322;-76
2023/07/01 03:16:09;;;;;;;5.57;5.00;;;;;;;;;;5015333;28;20210;-77
2023/07/01 03:18:36;;;;;;;6.87;4.80;;;;;;;;;;5041819;28;20181;-76
2023/07/01 03:21:02;;;;;;;5.30;4.60;;;;;;;;;;5032991;28;20661;-76
2023/07/01 03:23:29;;;;;;;6.43;4.80;;;;;;;;;;5032799;28;20209;-76
2023/07/01 03:25:55;;;;;;;6.13;4.57;;;;;;;;;;5016148;28;20279;-76
2023/07/01 03:28:21;;;;;;;7.67;4.67;;;;;;;;;;5032584;28;20660;-76
2023/07/01 03:30:48;;;;;;;5.83;4.80;;;;;;;;;;5050682;28;20257;-76
2023/07/01 03:33:15;;;;;;;5.17;4.53;;;;;;;;;;5032612;28;20692;-76
2023/07/01 03:35:42;;;;;;;6.43;4.50;;;;;;;;;;5049174;28;20201;-76
2023/07/01 03:38:08;;;;;;;4.80;4.30;;;;;;;;;;5051866;28;20170;-76
2023/07/01 03:40:34;;;;;;;5.20;4.50;;;;;;;;;;5033040;28;20196;-76
2023/07/01 03:43:00;;;;;;;4.90;4.50;;;;;;;;;;5050469;28;20181;-76
2023/07/01 03:45:26;;;;;;;5.23;4.73;;;;;;;;;;5050493;28;20624;-76
2023/07/01 03:47:52;;;;;;;4.87;4.30;;;;;;;;;;5050835;28;20277;-76
2023/07/01 03:50:18;;;;;;;5.00;4.40;;;;;;;;;;5050119;28;20218;-77
2023/07/01 03:52:44;;;;;;;6.07;4.30;;;;;;;;;;5015015;28;20183;-77
2023/07/01 03:55:12;;;;;;;5.23;4.17;;;;;;;;;;5053581;28;20209;-76
2023/07/01 03:57:38;;;;;;;6.53;4.50;;;;;;;;;;5055636;28;20629;-77
2023/07/01 04:00:08;;;;;;;5.33;4.60;;;;;;;;;;5034650;28;20576;-76
2023/07/01 04:02:39;;;;;;;4.90;4.40;;;;;;;;;;5036253;28;20173;-76
2023/07/01 04:05:10;;;;;;;5.60;4.70;;;;;;;;;;5048505;28;20668;-76
2023/07/01 04:07:37;;;;;;;7.67;5.10;;;;;;;;;;5051755;28;20181;-77
2023/07/01 04:10:05;;;;;;;5.20;4.60;;;;;;;;;;5052292;28;20233;-76
2023/07/01 04:12:35;;;;;;;5.00;4.17;;;;;;;;;;5053148;28;20181;-77
2023/07/01 04:15:03;;;;;;;6.90;4.70;;;;;;;;;;5035216;28;20201;-77
2023/07/01 04:17:30;;;;;;;5.50;4.57;;;;;;;;;;5052764;28;20183;-77
2023/07/01 04:19:56;;;;;;;6.27;4.67;;;;;;;;;;5049973;28;20186;-76
2023/07/01 04:22:23;;;;;;;4.93;4.43;;;;;;;;;;5035562;28;20634;-77
2023/07/01 04:24:50;;;;;;;6.40;4.33;;;;;;;;;;5035178;28;20213;-76
2023/07/01 04:27:16;;;;;;;6.43;4.63;;;;;;;;;;5052891;28;20683;-76
2023/07/01 04:29:42;;;;;;;5.33;4.83;;;;;;;;;;5033515;28;20201;-77
2023/07/01 04:32:08;;;;;;;5.70;4.40;;;;;;;;;;5033067;28;20262;-77
2023/07/01 04:34:34;;;;;;;5.17;4.53;;;;;;;;;;5026504;28;20261;-76
2023/07/01 04:37:00;;;;;;;5.50;4.40;;;;;;;;;;5047275;28;20243;-77
2023/07/01 04:39:26;;;;;;;6.67;4.20;;;;;;;;;;5002770;28;20208;-76
2023/07/01 04:41:53;;;;;;;4.97;4.00;;;;;;;;;;5052743;28;20174;-76
2023/07/01 04:44:19;;;;;;;5.03;4.20;;;;;;;;;;5036144;28;20205;-76
2023/07/01 04:46:45;;;;;;;6.93;4.50;;;;;;;;;;5028672;28;20574;-76
2023/07/01 04:49:11;;;;;;;6.77;4.27;;;;;;;;;;5038151;28;20225;-77
2023/07/01 04:51:37;;;;;;;5.80;3.90;;;;;;;;;;5050711;28;20175;-77
2023/07/01 04:54:04;;;;;;;7.50;4.40;;;;;;;;;;5050977;28;20212;-77
2023/07/01 04:56:30;;;;;;;4.70;4.03;;;;;;;;;;5051140;28;20197;-77
2023/07/01 04:58:56;;;;;;;6.17;4.30;;;;;;;;;;5053259;28;20178;-77
2023/07/01 05:01:23;;;;;;;4.63;3.97;;;;;;;;;;5053440;28;20253;-77
2023/07/01 05:03:49;;;;;;;4.97;3.67;;;;;;;;;;5049141;28;20182;-77
2023/07/01 05:06:15;;;;;;;5.40;4.20;;;;;;;;;;5051381;28;20209;-77
2023/07/01 05:08:42;;;;;;;5.80;3.70;;;;;;;;;;5034605;28;20193;-76
2023/07/01 05:11:08;;;;;;;5.90;4.10;;;;;;;;;;5018438;28;20186;-77
2023/07/01 05:13:34;;;;;;;6.80;3.70;;;;;;;;;;5050591;28;20193;-77
2023/07/01 05:16:00;;;;;;;6.23;3.87;;;;;;;;;;5049072;28;20201;-77
2023/07/01 05:18:26;;;;;;;5.27;3.90;;;;;;;;;;5047993;28;20185;-77
2023/07/01 05:20:52;;;;;;;5.40;3.97;;;;;;;;;;5052395;28;20184;-77
2023/07/01 05:23:19;;;;;;;4.33;3.70;;;;;;;;;;5048882;28;20184;-77
2023/07/01 05:25:45;;;;;;;5.00;3.97;;;;;;;;;;5050829;28;20194;-77
2023/07/01 05:28:11;;;;;;;7.03;3.90;;;;;;;;;;5046536;28;20178;-77
2023/07/01 05:30:37;;;;;;;4.43;3.87;;;;;;;;;;5048593;28;20218;-77
2023/07/01 05:33:03;;;;;;;5.00;3.83;;;;;;;;;;5049845;28;20190;-77
2023/07/01 05:35:29;;;;;;;4.33;3.90;;;;;;;;;;5050362;28;20201;-77
2023/07/01 05:37:56;;;;;;;5.40;3.63;;;;;;;;;;5014087;28;20208;-77
2023/07/01 05:40:22;;;;;;;7.57;4.07;;;;;;;;;;5045112;28;20261;-77
2023/07/01 05:42:48;;;;;;;4.97;4.07;;;;;;;;;;5015226;28;20697;-78
2023/07/01 05:45:14;;;;;;;5.73;4.23;;;;;;;;;;5046085;28;20202;-77
2023/07/01 05:47:40;;;;;;;4.90;4.07;;;;;;;;;;5034428;28;20188;-77
2023/07/01 05:50:06;;;;;;;8.47;4.30;;;;;;;;;;5051478;28;20599;-77
2023/07/01 05:52:33;;;;;;;6.10;3.90;;;;;;;;;;5048560;28;20716;-77
2023/07/01 05:54:59;;;;;;;4.30;3.90;;;;;;;;;;5002450;28;20332;-77
2023/07/01 05:57:25;;;;;;;7.70;4.57;;;;;;;;;;5022905;28;20642;-77
2023/07/01 05:59:51;;;;;;;7.10;4.23;;;;;;;;;;5030872;28;20193;-77
2023/07/01 06:02:17;;;;;;;7.37;4.37;;;;;;;;;;5027756;28;20173;-77
2023/07/01 06:04:43;;;;;;;7.43;4.63;;;;;;;;;;5010347;28;20278;-77
2023/07/01 06:07:09;;;;;;;6.73;4.60;;;;;;;;;;5030600;28;20747;-76
2023/07/01 06:09:35;;;;;;;7.60;4.30;;;;;;;;;;5045369;28;20260;-79
2023/07/01 06:12:02;;;;;;;5.57;4.40;;;;;;;;;;5029321;28;20182;-73
2023/07/01 06:14:28;;;;;;;5.43;4.37;;;;;;;;;;5044940;28;20331;-75
2023/07/01 06:16:54;;;;;;;6.07;4.20;;;;;;;;;;5044821;28;20627;-76
2023/07/01 06:19:20;;;;;;;5.47;3.93;;;;;;;;;;5038337;28;20569;-76
2023/07/01 06:21:46;;;;;;;7.23;4.30;;;;;;;;;;5011946;28;20194;-78
2023/07/01 06:24:12;;;;;;;6.93;4.50;;;;;;;;;;5044889;28;20178;-78
2023/07/01 06:26:39;;;;;;;4.43;4.00;;;;;;;;;;5016037;28;20217;-80
2023/07/01 06:29:05;;;;;;;5.67;4.07;;;;;;;;;;5032446;28;20300;-79
2023/07/01 06:31:31;;;;;;;5.87;3.83;;;;;;;;;;5050915;28;20538;-80
2023/07/01 06:33:57;;;;;;;5.20;4.10;;;;;;;;;;5034697;28;20614;-80
2023/07/01 06:36:23;;;;;;;4.97;4.10;;;;;;;;;;5043023;28;20189;-78
2023/07/01 06:38:49;;;;;;;5.33;3.90;;;;;;;;;;5050195;28;20185;-81
2023/07/01 06:41:15;;;;;;;7.33;4.20;;;;;;;;;;5032201;28;20239;-80
2023/07/01 06:43:41;;;;;;;6.00;4.00;;;;;;;;;;5033092;28;20587;-81
2023/07/01 06:46:08;;;;;;;4.70;3.53;;;;;;;;;;5024019;28;20205;-81
2023/07/01 06:48:34;;;;;;;7.50;3.43;;;;;;;;;;5029417;28;20185;-81
2023/07/01 06:51:00;;;;;;;4.50;3.70;;;;;;;;;;5015992;28;20189;-80
2023/07/01 06:53:26;;;;;;;5.00;3.47;;;;;;;;;;5051709;28;20181;-80
2023/07/01 06:55:52;;;;;;;8.10;3.60;;;;;;;;;;5049560;28;20673;-80
2023/07/01 06:58:19;;;;;;;6.07;3.33;;;;;;;;;;5048454;28;20231;-80
2023/07/01 07:00:45;;;;;;;6.70;3.40;;;;;;;;;;5036033;28;20259;-80
2023/07/01 07:03:11;;;;;;;5.37;3.40;;;;;;;;;;5052228;28;20185;-80
2023/07/01 07:05:38;;;;;;;5.70;3.63;;;;;;;;;;5051489;28;20224;-80
2023/07/01 07:08:04;;;;;;;4.67;3.13;;;;;;;;;;5018446;28;20273;-80
2023/07/01 07:10:30;;;;;;;4.23;3.10;;;;;;;;;;5048211;28;20198;-80
2023/07/01 07:12:56;;;;;;;6.63;3.30;;;;;;;;;;5028438;28;20309;-81
2023/07/01 07:15:23;;;;;;;3.60;2.97;;;;;;;;;;5029569;28;20205;-81
2023/07/01 07:17:49;;;;;;;4.60;3.20;;;;;;;;;;5050051;28;20243;-80
2023/07/01 07:20:15;;;;;;;3.40;3.00;;;;;;;;;;5049928;28;20269;-76
2023/07/01 07:22:41;;;;;;;4.77;3.03;;;;;;;;;;5017684;28;20255;-76
2023/07/01 07:25:13;;;;;;;7.97;3.10;;;;;;;;;;5049981;28;20197;-75
2023/07/01 07:27:40;;;;;;;5.63;3.10;;;;;;;;;;5049308;28;20213;-76
2023/07/01 07:30:06;;;;;;;4.73;3.07;;;;;;;;;;5054249;28;20609;-75
2023/07/01 07:32:32;;;;;;;6.10;3.00;;;;;;;;;;5052925;28;20189;-75
2023/07/01 07:34:58;;;;;;;6.27;3.00;;;;;;;;;;5035731;28;20198;-75
2023/07/01 07:37:24;;;;;;;4.87;3.10;;;;;;;;;;5035055;28;20177;-75
2023/07/01 07:39:52;;;;;;;6.73;3.00;;;;;;;;;;5054296;28;20189;-76
2023/07/01 07:42:18;;;;;;;4.00;3.27;;;;;;;;;;5044154;28;20248;-76
2023/07/01 07:44:44;;;;;;;6.50;3.13;;;;;;;;;;5050157;28;20595;-77
2023/07/01 07:47:10;;;;;;;4.50;2.70;;;;;;;;;;5057208;28;20257;-75
2023/07/01 07:49:36;;;;;;;4.47;2.80;;;;;;;;;;5050168;28;20213;-75
2023/07/01 07:52:04;;;;;;;7.57;2.80;;;;;;;;;;5052446;28;20178;-75
2023/07/01 07:54:30;;;;;;;6.50;3.23;;;;;;;;;;5053426;28;20213;-74
2023/07/01 07:56:58;;;;;;;6.43;3.03;;;;;;;;;;5053437;28;20178;-75
2023/07/01 07:59:26;;;;;;;3.30;2.70;;;;;;;;;;5053702;28;20606;-75
2023/07/01 08:01:53;;;;;;;4.73;3.13;;;;;;;;;;5053569;28;20193;-76
2023/07/01 08:04:19;;;;;;;7.53;2.67;;;;;;;;;;5053033;28;20190;-75
2023/07/01 08:06:45;;;;;;;4.30;2.80;;;;;;;;;;5051644;28;20213;-75
2023/07/01 08:09:11;;;;;;;4.67;2.87;;;;;;;;;;5050750;28;20212;-74
2023/07/01 08:11:38;;;;;;;3.63;2.80;;;;;;;;;;5037945;28;20641;-75
2023/07/01 08:14:04;;;;;;;6.53;2.73;;;;;;;;;;5051344;28;20182;-75
2023/07/01 08:16:32;;;;;;;3.20;2.63;;;;;;;;;;5052403;28;20210;-75
2023/07/01 08:18:58;;;;;;;4.03;2.67;;;;;;;;;;5053840;28;20178;-75
2023/07/01 08:21:24;;;;;;;5.57;2.80;;;;;;;;;;5040120;28;20186;-77
2023/07/01 08:23:50;;;;;;;7.17;2.70;;;;;;;;;;5040845;28;20186;-73
2023/07/01 08:26:16;;;;;;;3.83;2.47;;;;;;;;;;5052786;28;20208;-74
2023/07/01 08:28:43;;;;;;;6.37;2.97;;;;;;;;;;5053680;28;20186;-74
2023/07/01 08:31:09;;;;;;;4.33;2.53;;;;;;;;;;5049636;28;20182;-74
2023/07/01 08:33:35;;;;;;;4.53;2.80;;;;;;;;;;5061089;28;20166;-73
2023/07/01 08:36:01;;;;;;;4.50;2.63;;;;;;;;;;5039624;28;20690;-74
2023/07/01 08:38:29;;;;;;;4.63;2.67;;;;;;;;;;5033941;28;20182;-74
2023/07/01 08:40:56;;;;;;;3.53;2.50;;;;;;;;;;5044910;28;20244;-74
2023/07/01 08:43:25;;;;;;;4.63;2.40;;;;;;;;;;5052821;28;20197;-75
2023/07/01 08:45:52;;;;;;;4.77;2.37;;;;;;;;;;5048309;28;20236;-74
2023/07/01 08:48:22;;;;;;;7.97;2.73;;;;;;;;;;5038535;28;20182;-74
2023/07/01 08:51:07;;;;;;;4.90;2.40;;;;;;;;;;5049309;28;20207;-77
2023/07/01 08:53:33;;;;;;;8.43;2.70;;;;;;;;;;5039617;28;20170;-76
2023/07/01 08:56:00;;;;;;;6.80;2.47;;;;;;;;;;5049757;28;20732;-76
2023/07/01 08:58:26;;;;;;;3.33;2.40;;;;;;;;;;5052744;28;20182;-76
2023/07/01 09:00:53;;;;;;;9.53;2.60;;;;;;;;;;5052561;28;20284;-76
2023/07/01 09:03:20;;;;;;;3.73;2.27;;;;;;;;;;5051900;28;20182;-77
2023/07/01 09:05:46;;;;;;;5.33;2.40;;;;;;;;;;5030033;28;20639;-76
2023/07/01 09:08:12;;;;;;;2.70;2.10;;;;;;;;;;5020201;28;20186;-76
2023/07/01 09:10:38;;;;;;;3.63;2.30;;;;;;;;;;5043802;28;20292;-76
2023/07/01 09:13:11;;;;;;;5.67;2.50;;;;;;;;;;5034614;28;20212;-76
2023/07/01 09:15:47;;;;;;;4.97;2.20;;;;;;;;;;5051803;28;20217;-76
2023/07/01 09:18:21;;;;;;;4.93;2.43;;;;;;;;;;5051999;28;20320;-76
2023/07/01 09:20:48;;;;;;;3.00;2.60;;;;;;;;;;5052675;28;20877;-76
2023/07/01 09:23:26;;;;;;;3.43;2.20;;;;;;;;;;5050515;28;20572;-74
2023/07/01 09:25:52;;;;;;;3.07;2.00;;;;;;;;;;5050152;28;20324;-77
2023/07/01 09:28:37;;;;;;;2.63;2.13;;;;;;;;;;5050198;28;20189;-77
2023/07/01 09:31:06;;;;;;;3.80;2.40;;;;;;;;;;5046595;28;20190;-77
2023/07/01 09:33:34;;;;;;;4.80;2.47;;;;;;;;;;5038574;28;20229;-77
2023/07/01 09:36:02;;;;;;;3.73;2.40;;;;;;;;;;5049120;28;20197;-77
2023/07/01 09:38:29;;;;;;;3.03;2.30;;;;;;;;;;5025248;28;20194;-77
2023/07/01 09:40:55;;;;;;;3.90;2.03;;;;;;;;;;5041714;28;20210;-77
2023/07/01 09:43:41;;;;;;;4.00;2.40;;;;;;;;;;5039614;28;20277;-77
2023/07/01 09:46:11;;;;;;;2.63;2.10;;;;;;;;;;5033856;28;20229;-77
2023/07/01 09:48:38;;;;;;;5.13;2.23;;;;;;;;;;5035005;28;20171;-77
2023/07/01 09:51:04;;;;;;;4.17;2.40;;;;;;;;;;5049300;28;20930;-77
2023/07/01 09:53:32;;;;;;;3.00;2.10;;;;;;;;;;5047454;28;20425;-77
2023/07/01 09:56:01;;;;;;;3.90;2.40;;;;;;;;;;5051359;28;20701;-77
2023/07/01 09:58:28;;;;;;;4.33;2.50;;;;;;;;;;5032753;28;20292;-77
2023/07/01 10:00:57;;;;;;;3.03;2.60;;;;;;;;;;5033821;28;20216;-76
2023/07/01 10:03:25;;;;;;;3.97;2.40;;;;;;;;;;5051972;28;20170;-76
2023/07/01 10:05:52;;;;;;;4.90;2.47;;;;;;;;;;5050619;28;20213;-77
2023/07/01 10:08:18;;;;;;;4.90;2.50;;;;;;;;;;5033160;28;20182;-76
2023/07/01 10:10:45;;;;;;;2.83;2.33;;;;;;;;;;5050284;28;20241;-76
2023/07/01 10:13:12;;;;;;;4.63;2.00;;;;;;;;;;5051362;28;20175;-78
2023/07/01 10:15:39;;;;;;;4.90;1.97;;;;;;;;;;5032889;28;20225;-77
2023/07/01 10:18:20;;;;;;;3.40;2.10;;;;;;;;;;5050664;28;20615;-77
2023/07/01 10:20:47;;;;;;;2.33;1.80;;;;;;;;;;5051567;28;20212;-77
2023/07/01 10:23:13;;;;;;;5.70;1.97;;;;;;;;;;5051559;28;20174;-77
2023/07/01 10:25:41;;;;;;;3.03;1.70;;;;;;;;;;5050541;28;20287;-78
2023/07/01 10:28:10;;;;;;;3.00;1.90;;;;;;;;;;5046889;28;20189;-77
2023/07/01 10:30:43;;;;;;;4.30;1.83;;;;;;;;;;5048224;28;20217;-77
2023/07/01 10:33:30;;;;;;;4.03;1.80;;;;;;;;;;5048659;28;20937;-77
2023/07/01 10:36:06;;;;;;;3.27;2.00;;;;;;;;;;5043525;28;20243;-77
2023/07/01 10:38:32;;;;;;;2.60;2.10;;;;;;;;;;5037477;28;20230;-76
2023/07/01 10:40:59;;;;;;;2.50;1.80;;;;;;;;;;5042004;28;21186;-78
2023/07/01 10:43:31;;;;;;;4.03;2.00;;;;;;;;;;5029360;28;20193;-76
2023/07/01 10:46:10;;;;;;;3.10;1.90;;;;;;;;;;5014917;28;20645;-77
2023/07/01 10:48:38;;;;;;;1.70;1.60;;;;;;;;;;5047279;28;20646;-77
2023/07/01 10:51:04;;;;;;;3.67;1.90;;;;;;;;;;5050310;28;20676;-76
2023/07/01 10:53:30;;;;;;;4.10;2.13;;;;;;;;;;5050907;28;20272;-76
2023/07/01 10:56:11;;;;;;;3.27;2.00;;;;;;;;;;5045805;28;20232;-74
2023/07/01 10:58:38;;;;;;;5.27;1.90;;;;;;;;;;5034175;28;20185;-75
2023/07/01 11:01:04;;;;;;;3.67;1.70;;;;;;;;;;5034447;28;20186;-75
2023/07/01 11:03:33;;;;;;;2.50;2.00;;;;;;;;;;5056963;28;20201;-74
2023/07/01 11:06:01;;;;;;;2.50;1.93;;;;;;;;;;5052194;28;20201;-72
2023/07/01 11:08:28;;;;;;;4.83;2.07;;;;;;;;;;5053639;28;20186;-73
2023/07/01 11:10:54;;;;;;;3.47;1.77;;;;;;;;;;5052791;28;20333;-73
2023/07/01 11:13:20;;;;;;;2.80;1.70;;;;;;;;;;5048961;28;20185;-72
2023/07/01 11:16:04;;;;;;;2.87;2.00;;;;;;;;;;5054251;28;20255;-73
2023/07/01 11:18:47;;;;;;;6.07;2.37;;;;;;;;;;5053473;28;20205;-73
2023/07/01 11:21:15;;;;;;;3.20;2.17;;;;;;;;;;5054547;28;20525;-73
2023/07/01 11:23:41;;;;;;;3.03;1.93;;;;;;;;;;5052868;28;20184;-72
2023/07/01 11:26:07;;;;;;;2.73;1.87;;;;;;;;;;5053959;28;20186;-72
2023/07/01 11:28:34;;;;;;;4.60;2.10;;;;;;;;;;5048658;28;20206;-74
2023/07/01 11:31:17;;;;;;;3.50;1.80;;;;;;;;;;5040479;28;20225;-74
2023/07/01 11:33:46;;;;;;;2.37;1.97;;;;;;;;;;5018895;28;20178;-73
2023/07/01 11:36:17;;;;;;;2.10;1.90;;;;;;;;;;5036736;28;20203;-74
2023/07/01 11:38:45;;;;;;;4.00;2.07;;;;;;;;;;5043260;28;20186;-74
2023/07/01 11:41:29;;;;;;;2.67;2.07;;;;;;;;;;5051288;28;20182;-74
2023/07/01 11:43:55;;;;;;;5.77;2.20;;;;;;;;;;5034689;28;20535;-74
2023/07/01 11:46:32;;;;;;;5.50;2.30;;;;;;;;;;5053995;28;20194;-74
2023/07/01 11:48:58;;;;;;;3.30;2.03;;;;;;;;;;5050576;28;20750;-74
2023/07/01 11:51:37;;;;;;;4.53;2.00;;;;;;;;;;5060972;28;20195;-74
2023/07/01 11:54:03;;;;;;;2.33;1.90;;;;;;;;;;5034285;28;20178;-74
2023/07/01 11:56:29;;;;;;;2.30;1.80;;;;;;;;;;5028671;28;20213;-74
2023/07/01 11:58:55;;;;;;;3.63;2.20;;;;;;;;;;5051478;28;20186;-74
2023/07/01 12:01:23;;;;;;;3.40;2.03;;;;;;;;;;5051331;28;20197;-74
2023/07/01 12:03:50;;;;;;;3.43;2.10;;;;;;;;;;5048276;28;20182;-74
2023/07/01 12:06:19;;;;;;;3.00;1.97;;;;;;;;;;5049713;28;20202;-74
2023/07/01 12:08:55;;;;;;;3.13;2.40;;;;;;;;;;5050569;28;20290;-74
2023/07/01 12:11:22;;;;;;;3.73;2.23;;;;;;;;;;5019907;28;20189;-73
2023/07/01 12:13:48;;;;;;;2.67;1.87;;;;;;;;;;5052811;28;20530;-73
2023/07/01 12:16:15;;;;;;;2.80;2.00;;;;;;;;;;5048786;28;20203;-74
2023/07/01 12:18:41;;;;;;;2.73;2.37;;;;;;;;;;5051257;28;20736;-76
2023/07/01 12:21:07;;;;;;;4.03;2.10;;;;;;;;;;5052965;28;20179;-74
2023/07/01 12:23:41;;;;;;;2.43;1.97;;;;;;;;;;5050630;28;20186;-76
2023/07/01 12:26:07;;;;;;;3.67;1.90;;;;;;;;;;5035774;28;20194;-76
2023/07/01 12:28:33;;;;;;;3.77;2.00;;;;;;;;;;5053357;28;20170;-75
2023/07/01 12:30:59;;;;;;;2.37;1.87;;;;;;;;;;5048860;28;20245;-79
2023/07/01 12:33:25;;;;;;;3.33;2.13;;;;;;;;;;5046235;28;20210;-77
2023/07/01 12:35:52;;;;;;;1.90;1.80;;;;;;;;;;5049342;28;20206;-77
2023/07/01 12:38:19;;;;;;;4.63;2.30;;;;;;;;;;5030705;28;20542;-77
2023/07/01 12:40:45;;;;;;;5.60;2.20;;;;;;;;;;5033035;28;20198;-76
2023/07/01 12:43:11;;;;;;;5.10;2.20;;;;;;;;;;5052823;28;20203;-79
2023/07/01 12:45:38;;;;;;;4.27;2.10;;;;;;;;;;5053011;28;20203;-76
2023/07/01 12:48:07;;;;;;;2.67;2.10;;;;;;;;;;5034752;28;20189;-76
2023/07/01 12:50:34;;;;;;;2.17;1.97;;;;;;;;;;5053018;28;20202;-78
2023/07/01 12:53:00;;;;;;;2.90;2.00;;;;;;;;;;5050452;28;20199;-79
2023/07/01 12:55:26;;;;;;;3.97;1.70;;;;;;;;;;5053938;28;20710;-81
2023/07/01 12:57:52;;;;;;;3.30;2.20;;;;;;;;;;5056150;28;20166;-81
2023/07/01 13:00:19;;;;;;;2.33;2.03;;;;;;;;;;5046490;28;20208;-80
2023/07/01 13:02:46;;;;;;;2.67;1.80;;;;;;;;;;5061568;28;20261;-81
2023/07/01 13:05:15;;;;;;;3.13;1.90;;;;;;;;;;5045179;28;20260;-81
2023/07/01 13:07:42;;;;;;;3.73;1.73;;;;;;;;;;5035979;28;20243;-80
2023/07/01 13:10:09;;;;;;;2.73;1.70;;;;;;;;;;5038002;28;20209;-80
2023/07/01 13:12:36;;;;;;;2.37;1.80;;;;;;;;;;5055212;28;20594;-80
2023/07/01 13:15:06;;;;;;;2.43;2.00;;;;;;;;;;5055131;28;20189;-80
2023/07/01 13:17:43;;;;;;;2.23;2.03;;;;;;;;;;5055031;28;20182;-80
2023/07/01 13:20:10;;;;;;;4.70;1.90;;;;;;;;;;5053713;28;20178;-80
2023/07/01 13:22:36;;;;;;;3.80;1.67;;;;;;;;;;5053935;28;20178;-80
2023/07/01 13:25:03;;;;;;;3.07;2.00;;;;;;;;;;5054592;28;20719;-80
2023/07/01 13:27:30;;;;;;;2.20;2.00;;;;;;;;;;5055837;28;20574;-80
2023/07/01 13:29:56;;;;;;;2.17;1.90;;;;;;;;;;5055150;28;20308;-80
2023/07/01 13:32:23;;;;;;;3.40;2.10;;;;;;;;;;5037461;28;20554;-80
2023/07/01 13:34:50;;;;;;;4.47;1.80;;;;;;;;;;5038890;28;20182;-80
2023/07/01 13:37:20;;;;;;;3.43;1.70;;;;;;;;;;5054443;28;20320;-80
2023/07/01 13:39:50;;;;;;;2.50;1.93;;;;;;;;;;5034166;28;20186;-80
2023/07/01 13:42:20;;;;;;;2.97;2.20;;;;;;;;;;5049422;28;20657;-80
2023/07/01 13:44:49;;;;;;;4.00;1.90;;;;;;;;;;5039887;28;20185;-80
2023/07/01 13:47:18;;;;;;;2.60;1.70;;;;;;;;;;5054934;28;20192;-81
2023/07/01 13:49:44;;;;;;;2.67;2.00;;;;;;;;;;5050419;28;21546;-80
2023/07/01 13:52:11;;;;;;;3.17;1.60;;;;;;;;;;5054144;28;20223;-80
2023/07/01 13:54:37;;;;;;;2.33;1.60;;;;;;;;;;5050445;28;20244;-78
2023/07/01 13:57:03;;;;;;;2.60;1.70;;;;;;;;;;5032702;28;20174;-80
2023/07/01 13:59:30;;;;;;;3.23;1.70;;;;;;;;;;5054700;28;20683;-80
2023/07/01 14:01:58;;;;;;;4.30;1.60;;;;;;;;;;5050425;28;20186;-80
2023/07/01 14:04:24;;;;;;;1.90;1.70;;;;;;;;;;5053628;28;20267;-80
2023/07/01 14:06:51;;;;;;;2.07;1.67;;;;;;;;;;5051603;28;20293;-80
2023/07/01 14:09:37;;;;;;;2.23;1.90;;;;;;;;;;5049191;28;20681;-80
2023/07/01 14:12:03;;;;;;;2.63;1.70;;;;;;;;;;5052941;28;20657;-80
2023/07/01 14:14:31;;;;;;;2.50;1.60;;;;;;;;;;5033931;28;20889;-80
2023/07/01 14:16:57;;;;;;;1.87;1.70;;;;;;;;;;5034735;28;20213;-80
2023/07/01 14:19:24;;;;;;;1.90;1.80;;;;;;;;;;5053352;28;20265;-79
2023/07/01 14:21:52;;;;;;;1.63;1.50;;;;;;;;;;5034868;28;20199;-80
2023/07/01 14:24:26;;;;;;;3.23;1.70;;;;;;;;;;5021499;28;20190;-80
2023/07/01 14:26:52;;;;;;;1.90;1.70;;;;;;;;;;5052776;28;20280;-80
2023/07/01 14:29:18;;;;;;;2.53;1.60;;;;;;;;;;5034397;28;20225;-80
2023/07/01 14:31:49;;;;;;;1.90;1.63;;;;;;;;;;5052489;28;20709;-79
2023/07/01 14:34:18;;;;;;;1.90;1.70;;;;;;;;;;5051322;28;20201;-80
2023/07/01 14:36:44;;;;;;;5.00;1.83;;;;;;;;;;5032943;28;20202;-79
2023/07/01 14:39:11;;;;;;;2.10;1.70;;;;;;;;;;5051197;28;20185;-79
2023/07/01 14:41:38;;;;;;;2.10;1.50;;;;;;;;;;5035361;28;20167;-79
2023/07/01 14:44:05;;;;;;;3.93;1.50;;;;;;;;;;5055121;28;20584;-79
2023/07/01 14:46:33;;;;;;;1.90;1.40;;;;;;;;;;5023765;28;20209;-79